map of SVL home
SVL - Airport
Location
City:  Savonlinna, Etelä-Savo (Södra Savolax, Southern Savonia), Finland
ICAO:EFSA
IATA:SVL

Details
Type:Airport (Aerodrome, Airfield)
Use:Public/Civil
Latitude:61°56'35"N (61.943064)
Longitude:28°56'42"E (28.945136)
Datum:WGS 1984
Elevation:311 ft (95 m)
Variation:10.93°E (WMM2015 magnetic declination)
0.16° annual change
Runways:1
Longest:7546 × 148 ft (2300 × 45 m), paved

Time
Time Zone:UTC+2 (DST+3)
Local Time:

Weather
METAR:EFSA 230850Z AUTO 12015KT 0800 SN OVC009 M05/M06 Q0974

Related Locations
Nearby:
Farthest:NZTB: 11039 mi / 17766 km
Terra Nova Bay [Mario Zucchelli Station], AQ

Find:

   beyond  
but within

Other Information
Maps:
NOTAMs:
Links:
Sources:

  
flag of Finland   

Sectional Chart

Flight Planning
at skyvector.com

Satellite Image

Google Maps Satellite view

 

Copyright © 2004-2017 Karl L. Swartz. All rights reserved.
The Great Circle Mapper name and logo are trademarks of the Great Circle Mapper.
All other trademarks mentioned herein belong to their respective owners.
Please see credits for attibutions and further copyright information.

  Follow gcmap on Facebook Follow gcmap on Twitter Follow gcmap on Google+ GCmap on LinkedIn

hCard Microformat

Geo Microformat